sensor_id;sensor_type;location;lat;lon;timestamp;temperature;humidity
51988;DHT22;38003;52.012;4.346;2022-11-14T00:00:30;11.40;65.80
51988;DHT22;38003;52.012;4.346;2022-11-14T00:02:59;11.50;65.00
51988;DHT22;38003;52.012;4.346;2022-11-14T00:05:29;11.40;65.00
51988;DHT22;38003;52.012;4.346;2022-11-14T00:07:56;11.40;65.00
51988;DHT22;38003;52.012;4.346;2022-11-14T00:10:24;11.40;65.00
51988;DHT22;38003;52.012;4.346;2022-11-14T00:12:52;11.30;65.30
51988;DHT22;38003;52.012;4.346;2022-11-14T00:15:20;11.30;65.30
51988;DHT22;38003;52.012;4.346;2022-11-14T00:17:48;11.20;65.20
51988;DHT22;38003;52.012;4.346;2022-11-14T00:20:16;11.30;65.20
51988;DHT22;38003;52.012;4.346;2022-11-14T00:22:45;11.30;65.20
51988;DHT22;38003;52.012;4.346;2022-11-14T00:25:13;11.20;65.20
51988;DHT22;38003;52.012;4.346;2022-11-14T00:27:40;11.20;65.30
51988;DHT22;38003;52.012;4.346;2022-11-14T00:30:09;11.10;65.20
51988;DHT22;38003;52.012;4.346;2022-11-14T00:32:37;11.20;65.10
51988;DHT22;38003;52.012;4.346;2022-11-14T00:35:05;11.30;65.00
51988;DHT22;38003;52.012;4.346;2022-11-14T00:37:34;11.20;65.00
51988;DHT22;38003;52.012;4.346;2022-11-14T00:40:05;11.40;65.10
51988;DHT22;38003;52.012;4.346;2022-11-14T00:42:33;11.20;65.00
51988;DHT22;38003;52.012;4.346;2022-11-14T00:45:01;11.20;65.00
51988;DHT22;38003;52.012;4.346;2022-11-14T00:47:29;11.20;64.90
51988;DHT22;38003;52.012;4.346;2022-11-14T00:49:56;11.20;64.70
51988;DHT22;38003;52.012;4.346;2022-11-14T00:52:24;11.30;64.60
51988;DHT22;38003;52.012;4.346;2022-11-14T00:54:52;11.30;64.60
51988;DHT22;38003;52.012;4.346;2022-11-14T00:57:21;11.30;64.40
51988;DHT22;38003;52.012;4.346;2022-11-14T00:59:49;11.30;64.50
51988;DHT22;38003;52.012;4.346;2022-11-14T01:02:17;11.30;64.60
51988;DHT22;38003;52.012;4.346;2022-11-14T01:04:45;11.30;65.20
51988;DHT22;38003;52.012;4.346;2022-11-14T01:07:12;11.30;64.50
51988;DHT22;38003;52.012;4.346;2022-11-14T01:09:40;11.20;64.50
51988;DHT22;38003;52.012;4.346;2022-11-14T01:12:08;11.10;64.60
51988;DHT22;38003;52.012;4.346;2022-11-14T01:14:38;11.10;64.70
51988;DHT22;38003;52.012;4.346;2022-11-14T01:17:06;10.80;64.50
51988;DHT22;38003;52.012;4.346;2022-11-14T01:19:34;11.20;64.60
51988;DHT22;38003;52.012;4.346;2022-11-14T01:22:02;11.10;64.40
51988;DHT22;38003;52.012;4.346;2022-11-14T01:24:32;11.50;64.40
51988;DHT22;38003;52.012;4.346;2022-11-14T01:27:00;11.20;64.30
51988;DHT22;38003;52.012;4.346;2022-11-14T01:29:29;11.20;64.40
51988;DHT22;38003;52.012;4.346;2022-11-14T01:31:58;11.20;64.20
51988;DHT22;38003;52.012;4.346;2022-11-14T01:34:26;11.10;64.30
51988;DHT22;38003;52.012;4.346;2022-11-14T01:36:55;11.10;64.20
51988;DHT22;38003;52.012;4.346;2022-11-14T01:39:24;11.10;64.20
51988;DHT22;38003;52.012;4.346;2022-11-14T01:41:52;11.10;64.20
51988;DHT22;38003;52.012;4.346;2022-11-14T01:44:37;11.10;64.10
51988;DHT22;38003;52.012;4.346;2022-11-14T01:47:06;11.10;64.20
51988;DHT22;38003;52.012;4.346;2022-11-14T01:49:36;11.00;64.10
51988;DHT22;38003;52.012;4.346;2022-11-14T01:52:07;11.00;64.10
51988;DHT22;38003;52.012;4.346;2022-11-14T01:54:40;10.90;64.20
51988;DHT22;38003;52.012;4.346;2022-11-14T01:57:09;10.90;64.30
51988;DHT22;38003;52.012;4.346;2022-11-14T01:59:40;10.50;64.10
51988;DHT22;38003;52.012;4.346;2022-11-14T02:02:15;10.90;64.20
51988;DHT22;38003;52.012;4.346;2022-11-14T02:04:46;10.90;64.10
51988;DHT22;38003;52.012;4.346;2022-11-14T02:07:15;10.80;63.90
51988;DHT22;38003;52.012;4.346;2022-11-14T02:09:45;10.90;64.60
51988;DHT22;38003;52.012;4.346;2022-11-14T02:12:15;10.90;63.90
51988;DHT22;38003;52.012;4.346;2022-11-14T02:14:47;10.80;63.90
51988;DHT22;38003;52.012;4.346;2022-11-14T02:17:17;10.80;64.00
51988;DHT22;38003;52.012;4.346;2022-11-14T02:20:05;10.80;64.00
51988;DHT22;38003;52.012;4.346;2022-11-14T02:22:33;10.70;64.00
51988;DHT22;38003;52.012;4.346;2022-11-14T02:25:01;10.80;64.00
51988;DHT22;38003;52.012;4.346;2022-11-14T02:27:29;10.70;64.00
51988;DHT22;38003;52.012;4.346;2022-11-14T02:30:02;10.70;64.00
51988;DHT22;38003;52.012;4.346;2022-11-14T02:32:31;10.70;64.00
51988;DHT22;38003;52.012;4.346;2022-11-14T02:35:20;10.70;64.00
51988;DHT22;38003;52.012;4.346;2022-11-14T02:37:48;10.70;64.00
51988;DHT22;38003;52.012;4.346;2022-11-14T02:40:16;10.50;64.00
51988;DHT22;38003;52.012;4.346;2022-11-14T02:42:43;10.60;64.00
51988;DHT22;38003;52.012;4.346;2022-11-14T02:45:12;10.60;64.00
51988;DHT22;38003;52.012;4.346;2022-11-14T02:47:40;10.60;64.00
51988;DHT22;38003;52.012;4.346;2022-11-14T02:50:09;10.50;64.00
51988;DHT22;38003;52.012;4.346;2022-11-14T02:52:38;10.60;64.00
51988;DHT22;38003;52.012;4.346;2022-11-14T02:55:07;10.80;64.10
51988;DHT22;38003;52.012;4.346;2022-11-14T02:57:35;10.60;64.00
51988;DHT22;38003;52.012;4.346;2022-11-14T03:00:04;10.60;63.90
51988;DHT22;38003;52.012;4.346;2022-11-14T03:02:40;10.60;64.10
51988;DHT22;38003;52.012;4.346;2022-11-14T03:05:08;10.50;64.10
51988;DHT22;38003;52.012;4.346;2022-11-14T03:07:36;10.40;64.10
51988;DHT22;38003;52.012;4.346;2022-11-14T03:10:06;10.40;64.10
51988;DHT22;38003;52.012;4.346;2022-11-14T03:12:35;10.40;64.10
51988;DHT22;38003;52.012;4.346;2022-11-14T03:15:03;10.60;64.30
51988;DHT22;38003;52.012;4.346;2022-11-14T03:17:31;10.40;64.10
51988;DHT22;38003;52.012;4.346;2022-11-14T03:19:59;10.30;64.30
51988;DHT22;38003;52.012;4.346;2022-11-14T03:22:27;10.20;64.40
51988;DHT22;38003;52.012;4.346;2022-11-14T03:24:55;10.30;64.20
51988;DHT22;38003;52.012;4.346;2022-11-14T03:27:24;10.30;64.20
51988;DHT22;38003;52.012;4.346;2022-11-14T03:29:52;10.20;64.40
51988;DHT22;38003;52.012;4.346;2022-11-14T03:32:20;10.10;64.50
51988;DHT22;38003;52.012;4.346;2022-11-14T03:34:48;10.10;64.40
51988;DHT22;38003;52.012;4.346;2022-11-14T03:37:16;10.20;64.30
51988;DHT22;38003;52.012;4.346;2022-11-14T03:39:43;10.10;64.30
51988;DHT22;38003;52.012;4.346;2022-11-14T03:42:11;10.20;64.20
51988;DHT22;38003;52.012;4.346;2022-11-14T03:44:40;10.20;64.10
51988;DHT22;38003;52.012;4.346;2022-11-14T03:47:09;10.20;64.10
51988;DHT22;38003;52.012;4.346;2022-11-14T03:49:37;10.20;63.90
51988;DHT22;38003;52.012;4.346;2022-11-14T03:52:04;10.20;63.90
51988;DHT22;38003;52.012;4.346;2022-11-14T03:54:32;10.10;63.90
51988;DHT22;38003;52.012;4.346;2022-11-14T03:57:00;10.20;64.00
51988;DHT22;38003;52.012;4.346;2022-11-14T03:59:28;10.10;63.90
51988;DHT22;38003;52.012;4.346;2022-11-14T04:01:57;10.10;63.90
51988;DHT22;38003;52.012;4.346;2022-11-14T04:04:25;10.00;64.00
51988;DHT22;38003;52.012;4.346;2022-11-14T04:06:53;10.00;64.00
51988;DHT22;38003;52.012;4.346;2022-11-14T04:09:20;9.90;64.20
51988;DHT22;38003;52.012;4.346;2022-11-14T04:11:48;9.80;64.30
51988;DHT22;38003;52.012;4.346;2022-11-14T04:14:16;9.90;64.10
51988;DHT22;38003;52.012;4.346;2022-11-14T04:16:44;9.90;63.90
51988;DHT22;38003;52.012;4.346;2022-11-14T04:19:13;9.90;64.00
51988;DHT22;38003;52.012;4.346;2022-11-14T04:21:41;9.90;63.90
51988;DHT22;38003;52.012;4.346;2022-11-14T04:24:08;9.80;64.00
51988;DHT22;38003;52.012;4.346;2022-11-14T04:26:37;9.80;64.00
51988;DHT22;38003;52.012;4.346;2022-11-14T04:29:04;9.80;64.00
51988;DHT22;38003;52.012;4.346;2022-11-14T04:31:32;9.80;64.10
51988;DHT22;38003;52.012;4.346;2022-11-14T04:34:00;9.70;64.20
51988;DHT22;38003;52.012;4.346;2022-11-14T04:36:29;9.60;64.50
51988;DHT22;38003;52.012;4.346;2022-11-14T04:38:57;9.60;64.60
51988;DHT22;38003;52.012;4.346;2022-11-14T04:41:25;9.60;64.60
51988;DHT22;38003;52.012;4.346;2022-11-14T04:43:52;9.60;64.30
51988;DHT22;38003;52.012;4.346;2022-11-14T04:46:20;9.60;64.30
51988;DHT22;38003;52.012;4.346;2022-11-14T04:48:48;9.70;64.20
51988;DHT22;38003;52.012;4.346;2022-11-14T04:51:16;9.70;64.20
51988;DHT22;38003;52.012;4.346;2022-11-14T04:53:45;9.70;64.10
51988;DHT22;38003;52.012;4.346;2022-11-14T04:56:13;9.60;64.20
51988;DHT22;38003;52.012;4.346;2022-11-14T04:58:41;9.50;64.40
51988;DHT22;38003;52.012;4.346;2022-11-14T05:01:09;9.50;64.30
51988;DHT22;38003;52.012;4.346;2022-11-14T05:03:37;9.50;64.50
51988;DHT22;38003;52.012;4.346;2022-11-14T05:06:05;9.60;64.60
51988;DHT22;38003;52.012;4.346;2022-11-14T05:08:33;9.30;64.60
51988;DHT22;38003;52.012;4.346;2022-11-14T05:11:03;9.40;64.70
51988;DHT22;38003;52.012;4.346;2022-11-14T05:13:30;9.40;64.50
51988;DHT22;38003;52.012;4.346;2022-11-14T05:15:58;9.30;64.60
51988;DHT22;38003;52.012;4.346;2022-11-14T05:18:26;9.40;64.50
51988;DHT22;38003;52.012;4.346;2022-11-14T05:20:57;9.40;64.50
51988;DHT22;38003;52.012;4.346;2022-11-14T05:23:26;9.30;64.70
51988;DHT22;38003;52.012;4.346;2022-11-14T05:26:00;9.30;64.60
51988;DHT22;38003;52.012;4.346;2022-11-14T05:28:30;9.40;64.50
51988;DHT22;38003;52.012;4.346;2022-11-14T05:31:02;9.30;64.40
51988;DHT22;38003;52.012;4.346;2022-11-14T05:33:31;9.40;64.40
51988;DHT22;38003;52.012;4.346;2022-11-14T05:36:03;9.20;64.50
51988;DHT22;38003;52.012;4.346;2022-11-14T05:38:31;9.20;64.60
51988;DHT22;38003;52.012;4.346;2022-11-14T05:41:00;9.20;64.60
51988;DHT22;38003;52.012;4.346;2022-11-14T05:43:33;9.20;64.50
51988;DHT22;38003;52.012;4.346;2022-11-14T05:46:02;9.20;64.40
51988;DHT22;38003;52.012;4.346;2022-11-14T05:48:31;9.20;64.40
51988;DHT22;38003;52.012;4.346;2022-11-14T05:51:00;9.20;64.40
51988;DHT22;38003;52.012;4.346;2022-11-14T05:53:30;9.40;64.50
51988;DHT22;38003;52.012;4.346;2022-11-14T05:55:59;9.10;64.60
51988;DHT22;38003;52.012;4.346;2022-11-14T05:58:28;9.20;64.50
51988;DHT22;38003;52.012;4.346;2022-11-14T06:01:02;9.10;64.60
51988;DHT22;38003;52.012;4.346;2022-11-14T06:03:31;9.10;64.80
51988;DHT22;38003;52.012;4.346;2022-11-14T06:06:00;9.00;64.80
51988;DHT22;38003;52.012;4.346;2022-11-14T06:08:29;9.00;65.00
51988;DHT22;38003;52.012;4.346;2022-11-14T06:11:01;9.10;64.80
51988;DHT22;38003;52.012;4.346;2022-11-14T06:13:30;9.00;64.80
51988;DHT22;38003;52.012;4.346;2022-11-14T06:15:59;8.90;64.80
51988;DHT22;38003;52.012;4.346;2022-11-14T06:18:31;8.90;65.10
51988;DHT22;38003;52.012;4.346;2022-11-14T06:20:59;8.90;65.00
51988;DHT22;38003;52.012;4.346;2022-11-14T06:23:27;8.90;65.10
51988;DHT22;38003;52.012;4.346;2022-11-14T06:25:58;8.90;65.00
51988;DHT22;38003;52.012;4.346;2022-11-14T06:28:27;8.80;65.10
51988;DHT22;38003;52.012;4.346;2022-11-14T06:30:56;8.10;64.70
51988;DHT22;38003;52.012;4.346;2022-11-14T06:33:25;8.80;65.20
51988;DHT22;38003;52.012;4.346;2022-11-14T06:35:58;8.90;65.10
51988;DHT22;38003;52.012;4.346;2022-11-14T06:38:26;9.00;64.90
51988;DHT22;38003;52.012;4.346;2022-11-14T06:41:01;9.10;65.10
51988;DHT22;38003;52.012;4.346;2022-11-14T06:43:31;8.90;65.10
51988;DHT22;38003;52.012;4.346;2022-11-14T06:46:00;8.80;65.20
51988;DHT22;38003;52.012;4.346;2022-11-14T06:48:28;8.80;65.20
51988;DHT22;38003;52.012;4.346;2022-11-14T06:50:58;8.80;65.20
51988;DHT22;38003;52.012;4.346;2022-11-14T06:53:28;8.80;65.20
51988;DHT22;38003;52.012;4.346;2022-11-14T06:55:57;8.70;65.20
51988;DHT22;38003;52.012;4.346;2022-11-14T06:58:26;8.70;65.20
51988;DHT22;38003;52.012;4.346;2022-11-14T07:00:54;8.80;65.30
51988;DHT22;38003;52.012;4.346;2022-11-14T07:03:22;8.80;65.10
51988;DHT22;38003;52.012;4.346;2022-11-14T07:05:50;8.80;65.10
51988;DHT22;38003;52.012;4.346;2022-11-14T07:08:19;8.70;65.20
51988;DHT22;38003;52.012;4.346;2022-11-14T07:10:47;8.70;65.30
51988;DHT22;38003;52.012;4.346;2022-11-14T07:13:15;8.70;65.30
51988;DHT22;38003;52.012;4.346;2022-11-14T07:15:49;8.70;65.10
51988;DHT22;38003;52.012;4.346;2022-11-14T07:18:17;8.70;65.40
51988;DHT22;38003;52.012;4.346;2022-11-14T07:20:45;8.70;65.20
51988;DHT22;38003;52.012;4.346;2022-11-14T07:23:13;8.70;65.20
51988;DHT22;38003;52.012;4.346;2022-11-14T07:25:49;8.70;65.20
51988;DHT22;38003;52.012;4.346;2022-11-14T07:28:17;8.70;65.00
51988;DHT22;38003;52.012;4.346;2022-11-14T07:30:45;8.70;65.90
51988;DHT22;38003;52.012;4.346;2022-11-14T07:33:13;8.70;65.50
51988;DHT22;38003;52.012;4.346;2022-11-14T07:35:41;8.70;65.40
51988;DHT22;38003;52.012;4.346;2022-11-14T07:38:09;8.70;65.40
51988;DHT22;38003;52.012;4.346;2022-11-14T07:40:36;8.80;65.20
51988;DHT22;38003;52.012;4.346;2022-11-14T07:43:06;8.80;65.10
51988;DHT22;38003;52.012;4.346;2022-11-14T07:45:33;8.70;65.20
51988;DHT22;38003;52.012;4.346;2022-11-14T07:48:01;8.80;65.10
51988;DHT22;38003;52.012;4.346;2022-11-14T07:50:29;8.70;65.20
51988;DHT22;38003;52.012;4.346;2022-11-14T07:52:57;8.70;65.20
51988;DHT22;38003;52.012;4.346;2022-11-14T07:55:25;8.70;65.30
51988;DHT22;38003;52.012;4.346;2022-11-14T07:57:53;8.80;65.10
51988;DHT22;38003;52.012;4.346;2022-11-14T08:00:23;8.80;65.10
51988;DHT22;38003;52.012;4.346;2022-11-14T08:02:50;8.70;65.30
51988;DHT22;38003;52.012;4.346;2022-11-14T08:05:18;8.70;65.40
51988;DHT22;38003;52.012;4.346;2022-11-14T08:07:49;8.70;65.40
51988;DHT22;38003;52.012;4.346;2022-11-14T08:10:17;8.70;65.50
51988;DHT22;38003;52.012;4.346;2022-11-14T08:12:45;8.70;65.40
51988;DHT22;38003;52.012;4.346;2022-11-14T08:15:31;8.80;65.30
51988;DHT22;38003;52.012;4.346;2022-11-14T08:18:00;8.80;65.40
51988;DHT22;38003;52.012;4.346;2022-11-14T08:20:28;8.90;65.40
51988;DHT22;38003;52.012;4.346;2022-11-14T08:23:00;8.90;65.40
51988;DHT22;38003;52.012;4.346;2022-11-14T08:25:29;8.90;65.40
51988;DHT22;38003;52.012;4.346;2022-11-14T08:27:57;9.00;65.20
51988;DHT22;38003;52.012;4.346;2022-11-14T08:30:25;9.00;65.30
51988;DHT22;38003;52.012;4.346;2022-11-14T08:32:54;9.10;65.20
51988;DHT22;38003;52.012;4.346;2022-11-14T08:35:22;9.10;65.10
51988;DHT22;38003;52.012;4.346;2022-11-14T08:37:50;9.20;65.20
51988;DHT22;38003;52.012;4.346;2022-11-14T08:40:18;9.10;65.20
51988;DHT22;38003;52.012;4.346;2022-11-14T08:42:45;9.10;65.10
51988;DHT22;38003;52.012;4.346;2022-11-14T08:45:13;9.10;65.10
51988;DHT22;38003;52.012;4.346;2022-11-14T08:47:41;9.10;65.10
51988;DHT22;38003;52.012;4.346;2022-11-14T08:50:10;9.20;65.10
51988;DHT22;38003;52.012;4.346;2022-11-14T08:52:38;9.20;65.00
51988;DHT22;38003;52.012;4.346;2022-11-14T08:55:06;9.20;65.00
51988;DHT22;38003;52.012;4.346;2022-11-14T08:57:34;9.40;65.20
51988;DHT22;38003;52.012;4.346;2022-11-14T09:00:02;9.40;65.00
51988;DHT22;38003;52.012;4.346;2022-11-14T09:02:30;9.40;64.80
51988;DHT22;38003;52.012;4.346;2022-11-14T09:04:58;9.50;64.80
51988;DHT22;38003;52.012;4.346;2022-11-14T09:07:27;9.50;65.00
51988;DHT22;38003;52.012;4.346;2022-11-14T09:09:55;9.50;65.00
51988;DHT22;38003;52.012;4.346;2022-11-14T09:12:23;9.60;64.90
51988;DHT22;38003;52.012;4.346;2022-11-14T09:14:51;9.50;64.80
51988;DHT22;38003;52.012;4.346;2022-11-14T09:17:19;9.70;65.10
51988;DHT22;38003;52.012;4.346;2022-11-14T09:19:47;9.60;65.00
51988;DHT22;38003;52.012;4.346;2022-11-14T09:22:15;9.70;64.90
51988;DHT22;38003;52.012;4.346;2022-11-14T09:24:44;9.60;64.90
51988;DHT22;38003;52.012;4.346;2022-11-14T09:27:14;9.60;65.20
51988;DHT22;38003;52.012;4.346;2022-11-14T09:29:43;9.70;65.10
51988;DHT22;38003;52.012;4.346;2022-11-14T09:32:11;9.80;65.00
51988;DHT22;38003;52.012;4.346;2022-11-14T09:34:38;10.00;64.80
51988;DHT22;38003;52.012;4.346;2022-11-14T09:37:09;10.20;64.50
51988;DHT22;38003;52.012;4.346;2022-11-14T09:39:36;10.40;64.30
51988;DHT22;38003;52.012;4.346;2022-11-14T09:42:21;10.60;64.30
51988;DHT22;38003;52.012;4.346;2022-11-14T09:44:56;10.70;63.70
51988;DHT22;38003;52.012;4.346;2022-11-14T09:47:27;10.70;64.10
51988;DHT22;38003;52.012;4.346;2022-11-14T09:50:01;10.90;63.90
51988;DHT22;38003;52.012;4.346;2022-11-14T09:52:35;11.10;63.70
51988;DHT22;38003;52.012;4.346;2022-11-14T09:55:09;11.30;63.70
51988;DHT22;38003;52.012;4.346;2022-11-14T09:57:40;11.40;63.50
51988;DHT22;38003;52.012;4.346;2022-11-14T10:00:14;11.50;63.30
51988;DHT22;38003;52.012;4.346;2022-11-14T10:03:04;11.60;63.30
51988;DHT22;38003;52.012;4.346;2022-11-14T10:05:41;11.70;63.20
51988;DHT22;38003;52.012;4.346;2022-11-14T10:08:29;12.00;63.20
51988;DHT22;38003;52.012;4.346;2022-11-14T10:11:06;12.10;63.00
51988;DHT22;38003;52.012;4.346;2022-11-14T10:13:49;12.20;62.90
51988;DHT22;38003;52.012;4.346;2022-11-14T10:16:23;12.20;62.70
51988;DHT22;38003;52.012;4.346;2022-11-14T10:19:06;12.30;62.80
51988;DHT22;38003;52.012;4.346;2022-11-14T10:21:50;12.30;62.80
51988;DHT22;38003;52.012;4.346;2022-11-14T10:27:18;12.30;62.90
51988;DHT22;38003;52.012;4.346;2022-11-14T10:30:09;12.40;63.60
51988;DHT22;38003;52.012;4.346;2022-11-14T10:32:58;12.50;62.90
51988;DHT22;38003;52.012;4.346;2022-11-14T10:35:30;12.50;62.80
51988;DHT22;38003;52.012;4.346;2022-11-14T10:38:04;12.50;63.30
51988;DHT22;38003;52.012;4.346;2022-11-14T10:40:39;12.40;62.80
51988;DHT22;38003;52.012;4.346;2022-11-14T10:43:17;12.50;62.90
51988;DHT22;38003;52.012;4.346;2022-11-14T10:45:51;12.50;62.90
51988;DHT22;38003;52.012;4.346;2022-11-14T10:48:29;12.50;62.90
51988;DHT22;38003;52.012;4.346;2022-11-14T10:51:00;12.50;62.90
51988;DHT22;38003;52.012;4.346;2022-11-14T10:53:40;12.50;62.60
51988;DHT22;38003;52.012;4.346;2022-11-14T10:56:11;12.50;62.40
51988;DHT22;38003;52.012;4.346;2022-11-14T10:58:40;12.50;62.90
51988;DHT22;38003;52.012;4.346;2022-11-14T11:01:38;12.30;62.90
51988;DHT22;38003;52.012;4.346;2022-11-14T11:04:19;12.40;63.00
51988;DHT22;38003;52.012;4.346;2022-11-14T11:06:49;12.40;62.40
51988;DHT22;38003;52.012;4.346;2022-11-14T11:09:18;12.30;63.10
51988;DHT22;38003;52.012;4.346;2022-11-14T11:12:15;12.40;62.90
51988;DHT22;38003;52.012;4.346;2022-11-14T11:14:43;12.50;63.10
51988;DHT22;38003;52.012;4.346;2022-11-14T11:17:21;12.60;63.00
51988;DHT22;38003;52.012;4.346;2022-11-14T11:19:55;12.70;62.90
51988;DHT22;38003;52.012;4.346;2022-11-14T11:22:35;12.70;62.90
51988;DHT22;38003;52.012;4.346;2022-11-14T11:25:22;12.70;63.00
51988;DHT22;38003;52.012;4.346;2022-11-14T11:28:04;12.70;62.70
51988;DHT22;38003;52.012;4.346;2022-11-14T11:30:32;12.70;62.90
51988;DHT22;38003;52.012;4.346;2022-11-14T11:33:22;12.70;62.90
51988;DHT22;38003;52.012;4.346;2022-11-14T11:35:55;12.70;63.00
51988;DHT22;38003;52.012;4.346;2022-11-14T11:38:25;12.70;62.90
51988;DHT22;38003;52.012;4.346;2022-11-14T11:41:01;12.80;63.00
51988;DHT22;38003;52.012;4.346;2022-11-14T11:43:39;12.80;63.10
51988;DHT22;38003;52.012;4.346;2022-11-14T11:46:14;12.80;63.30
51988;DHT22;38003;52.012;4.346;2022-11-14T11:48:45;12.70;63.30
51988;DHT22;38003;52.012;4.346;2022-11-14T11:51:17;12.70;63.40
51988;DHT22;38003;52.012;4.346;2022-11-14T11:53:54;12.70;63.50
51988;DHT22;38003;52.012;4.346;2022-11-14T11:56:26;12.70;63.50
51988;DHT22;38003;52.012;4.346;2022-11-14T11:59:02;12.80;63.50
51988;DHT22;38003;52.012;4.346;2022-11-14T12:01:33;12.80;63.30
51988;DHT22;38003;52.012;4.346;2022-11-14T12:04:03;12.90;63.40
51988;DHT22;38003;52.012;4.346;2022-11-14T12:06:37;12.90;63.50
51988;DHT22;38003;52.012;4.346;2022-11-14T12:09:14;12.90;63.30
51988;DHT22;38003;52.012;4.346;2022-11-14T12:11:46;13.00;63.40
51988;DHT22;38003;52.012;4.346;2022-11-14T12:14:51;13.00;63.10
51988;DHT22;38003;52.012;4.346;2022-11-14T12:17:45;13.00;63.30
51988;DHT22;38003;52.012;4.346;2022-11-14T12:20:36;12.90;63.40
51988;DHT22;38003;52.012;4.346;2022-11-14T12:23:24;13.00;63.50
51988;DHT22;38003;52.012;4.346;2022-11-14T12:26:08;13.00;63.40
51988;DHT22;38003;52.012;4.346;2022-11-14T12:28:52;13.10;63.30
51988;DHT22;38003;52.012;4.346;2022-11-14T12:31:27;13.10;63.20
51988;DHT22;38003;52.012;4.346;2022-11-14T12:33:59;13.20;63.40
51988;DHT22;38003;52.012;4.346;2022-11-14T12:36:31;13.30;63.30
51988;DHT22;38003;52.012;4.346;2022-11-14T12:39:00;13.40;63.20
51988;DHT22;38003;52.012;4.346;2022-11-14T12:41:31;13.30;63.10
51988;DHT22;38003;52.012;4.346;2022-11-14T12:44:31;13.40;63.10
51988;DHT22;38003;52.012;4.346;2022-11-14T12:47:12;13.40;63.20
51988;DHT22;38003;52.012;4.346;2022-11-14T12:49:56;13.50;63.10
51988;DHT22;38003;52.012;4.346;2022-11-14T12:52:58;13.50;62.90
51988;DHT22;38003;52.012;4.346;2022-11-14T12:55:54;13.70;62.80
51988;DHT22;38003;52.012;4.346;2022-11-14T12:58:43;13.80;62.70
51988;DHT22;38003;52.012;4.346;2022-11-14T13:01:29;13.80;62.80
51988;DHT22;38003;52.012;4.346;2022-11-14T13:04:15;14.00;62.90
51988;DHT22;38003;52.012;4.346;2022-11-14T13:06:57;14.10;62.70
51988;DHT22;38003;52.012;4.346;2022-11-14T13:09:40;14.10;62.60
51988;DHT22;38003;52.012;4.346;2022-11-14T13:12:28;14.30;62.50
51988;DHT22;38003;52.012;4.346;2022-11-14T13:15:32;14.40;62.50
51988;DHT22;38003;52.012;4.346;2022-11-14T13:18:21;14.50;62.40
51988;DHT22;38003;52.012;4.346;2022-11-14T13:21:18;14.60;62.20
51988;DHT22;38003;52.012;4.346;2022-11-14T13:24:11;14.70;62.10
51988;DHT22;38003;52.012;4.346;2022-11-14T13:26:48;14.80;62.10
51988;DHT22;38003;52.012;4.346;2022-11-14T13:35:41;14.90;62.00
51988;DHT22;38003;52.012;4.346;2022-11-14T13:38:49;14.90;61.80
51988;DHT22;38003;52.012;4.346;2022-11-14T13:41:37;15.00;61.60
51988;DHT22;38003;52.012;4.346;2022-11-14T13:44:30;14.90;61.40
51988;DHT22;38003;52.012;4.346;2022-11-14T13:47:11;14.90;61.40
51988;DHT22;38003;52.012;4.346;2022-11-14T13:49:55;14.80;61.30
51988;DHT22;38003;52.012;4.346;2022-11-14T13:52:28;15.00;61.60
51988;DHT22;38003;52.012;4.346;2022-11-14T13:54:58;14.80;61.60
51988;DHT22;38003;52.012;4.346;2022-11-14T13:57:36;14.80;61.70
51988;DHT22;38003;52.012;4.346;2022-11-14T14:00:13;14.80;61.40
51988;DHT22;38003;52.012;4.346;2022-11-14T14:03:06;14.80;61.50
51988;DHT22;38003;52.012;4.346;2022-11-14T14:05:52;15.00;61.50
51988;DHT22;38003;52.012;4.346;2022-11-14T14:08:45;14.80;61.80
51988;DHT22;38003;52.012;4.346;2022-11-14T14:11:34;14.80;61.80
51988;DHT22;38003;52.012;4.346;2022-11-14T14:14:19;14.80;61.60
51988;DHT22;38003;52.012;4.346;2022-11-14T14:16:56;14.70;61.50
51988;DHT22;38003;52.012;4.346;2022-11-14T14:19:36;14.70;61.50
51988;DHT22;38003;52.012;4.346;2022-11-14T14:22:13;14.70;61.50
51988;DHT22;38003;52.012;4.346;2022-11-14T14:24:54;14.80;61.60
51988;DHT22;38003;52.012;4.346;2022-11-14T14:27:28;14.80;61.60
51988;DHT22;38003;52.012;4.346;2022-11-14T14:30:03;14.80;61.30
51988;DHT22;38003;52.012;4.346;2022-11-14T14:32:35;14.90;61.30
51988;DHT22;38003;52.012;4.346;2022-11-14T14:35:20;15.00;60.90
51988;DHT22;38003;52.012;4.346;2022-11-14T14:37:50;15.00;60.90
51988;DHT22;38003;52.012;4.346;2022-11-14T14:40:24;14.60;61.00
51988;DHT22;38003;52.012;4.346;2022-11-14T14:42:53;14.50;61.20
51988;DHT22;38003;52.012;4.346;2022-11-14T14:45:23;14.40;61.70
51988;DHT22;38003;52.012;4.346;2022-11-14T14:48:01;14.40;61.50
51988;DHT22;38003;52.012;4.346;2022-11-14T14:50:32;14.30;61.50
51988;DHT22;38003;52.012;4.346;2022-11-14T14:53:02;14.30;61.70
51988;DHT22;38003;52.012;4.346;2022-11-14T14:55:32;14.20;61.70
51988;DHT22;38003;52.012;4.346;2022-11-14T14:58:14;14.20;61.80
51988;DHT22;38003;52.012;4.346;2022-11-14T15:00:51;14.20;61.80
51988;DHT22;38003;52.012;4.346;2022-11-14T15:03:21;14.20;61.80
51988;DHT22;38003;52.012;4.346;2022-11-14T15:05:59;14.20;61.80
51988;DHT22;38003;52.012;4.346;2022-11-14T15:08:28;14.10;61.80
51988;DHT22;38003;52.012;4.346;2022-11-14T15:10:59;14.00;61.80
51988;DHT22;38003;52.012;4.346;2022-11-14T15:13:29;14.00;62.00
51988;DHT22;38003;52.012;4.346;2022-11-14T15:15:57;14.00;61.90
51988;DHT22;38003;52.012;4.346;2022-11-14T15:18:28;14.00;62.00
51988;DHT22;38003;52.012;4.346;2022-11-14T15:21:08;14.00;62.10
51988;DHT22;38003;52.012;4.346;2022-11-14T15:23:37;13.90;62.20
51988;DHT22;38003;52.012;4.346;2022-11-14T15:26:11;13.90;62.30
51988;DHT22;38003;52.012;4.346;2022-11-14T15:28:40;13.80;62.30
51988;DHT22;38003;52.012;4.346;2022-11-14T15:31:16;13.80;62.30
51988;DHT22;38003;52.012;4.346;2022-11-14T15:34:00;13.80;62.20
51988;DHT22;38003;52.012;4.346;2022-11-14T15:36:28;13.80;62.30
51988;DHT22;38003;52.012;4.346;2022-11-14T15:39:01;13.70;62.40
51988;DHT22;38003;52.012;4.346;2022-11-14T15:41:30;13.70;62.40
51988;DHT22;38003;52.012;4.346;2022-11-14T15:43:58;13.70;62.40
51988;DHT22;38003;52.012;4.346;2022-11-14T15:46:39;13.70;62.50
51988;DHT22;38003;52.012;4.346;2022-11-14T15:49:14;13.60;62.40
51988;DHT22;38003;52.012;4.346;2022-11-14T15:51:45;13.60;62.50
51988;DHT22;38003;52.012;4.346;2022-11-14T15:54:27;13.50;62.50
51988;DHT22;38003;52.012;4.346;2022-11-14T15:56:57;13.50;62.40
51988;DHT22;38003;52.012;4.346;2022-11-14T15:59:26;13.50;62.50
51988;DHT22;38003;52.012;4.346;2022-11-14T16:01:58;13.40;62.60
51988;DHT22;38003;52.012;4.346;2022-11-14T16:04:32;13.40;62.60
51988;DHT22;38003;52.012;4.346;2022-11-14T16:07:00;13.40;62.60
51988;DHT22;38003;52.012;4.346;2022-11-14T16:09:28;13.30;62.70
51988;DHT22;38003;52.012;4.346;2022-11-14T16:11:56;13.30;62.70
51988;DHT22;38003;52.012;4.346;2022-11-14T16:14:23;13.40;62.70
51988;DHT22;38003;52.012;4.346;2022-11-14T16:16:51;13.30;62.70